sensor_id;sensor_type;location;lat;lon;timestamp;P1;durP1;ratioP1;P2;durP2;ratioP2
595;SDS011;19946;49.306;11.350;2022-07-12T00:01:48;3.00;;;3.00;;
595;SDS011;19946;49.306;11.350;2022-07-12T00:04:48;2.60;;;2.60;;
595;SDS011;19946;49.306;11.350;2022-07-12T00:07:49;2.80;;;2.80;;
595;SDS011;19946;49.306;11.350;2022-07-12T00:10:49;3.10;;;3.10;;
595;SDS011;19946;49.306;11.350;2022-07-12T00:13:50;2.97;;;2.97;;
595;SDS011;19946;49.306;11.350;2022-07-12T00:16:50;3.20;;;3.20;;
595;SDS011;19946;49.306;11.350;2022-07-12T00:20:20;3.30;;;3.30;;
595;SDS011;19946;49.306;11.350;2022-07-12T00:23:20;3.30;;;3.30;;
595;SDS011;19946;49.306;11.350;2022-07-12T00:26:21;2.90;;;2.90;;
595;SDS011;19946;49.306;11.350;2022-07-12T00:29:21;2.90;;;2.90;;
595;SDS011;19946;49.306;11.350;2022-07-12T00:32:22;2.93;;;2.93;;
595;SDS011;19946;49.306;11.350;2022-07-12T00:35:22;3.40;;;3.40;;
595;SDS011;19946;49.306;11.350;2022-07-12T00:38:23;3.10;;;3.10;;
595;SDS011;19946;49.306;11.350;2022-07-12T00:41:24;3.10;;;3.10;;
595;SDS011;19946;49.306;11.350;2022-07-12T00:44:24;3.20;;;3.20;;
595;SDS011;19946;49.306;11.350;2022-07-12T00:47:35;3.00;;;3.00;;
595;SDS011;19946;49.306;11.350;2022-07-12T00:50:40;3.37;;;3.37;;
595;SDS011;19946;49.306;11.350;2022-07-12T00:53:41;3.07;;;3.07;;
595;SDS011;19946;49.306;11.350;2022-07-12T00:56:42;3.10;;;3.10;;
595;SDS011;19946;49.306;11.350;2022-07-12T00:59:43;2.90;;;2.90;;
595;SDS011;19946;49.306;11.350;2022-07-12T01:02:43;2.60;;;2.60;;
595;SDS011;19946;49.306;11.350;2022-07-12T01:05:45;2.60;;;2.60;;
595;SDS011;19946;49.306;11.350;2022-07-12T01:08:46;2.63;;;2.63;;
595;SDS011;19946;49.306;11.350;2022-07-12T01:11:47;2.50;;;2.50;;
595;SDS011;19946;49.306;11.350;2022-07-12T01:14:51;2.50;;;2.50;;
595;SDS011;19946;49.306;11.350;2022-07-12T01:17:52;2.90;;;2.90;;
595;SDS011;19946;49.306;11.350;2022-07-12T01:20:53;3.20;;;3.20;;
595;SDS011;19946;49.306;11.350;2022-07-12T01:23:53;3.30;;;3.30;;
595;SDS011;19946;49.306;11.350;2022-07-12T01:26:54;2.80;;;2.80;;
595;SDS011;19946;49.306;11.350;2022-07-12T01:29:56;3.00;;;3.00;;
595;SDS011;19946;49.306;11.350;2022-07-12T01:32:56;2.80;;;2.80;;
595;SDS011;19946;49.306;11.350;2022-07-12T01:35:59;2.50;;;2.50;;
595;SDS011;19946;49.306;11.350;2022-07-12T01:38:59;2.60;;;2.60;;
595;SDS011;19946;49.306;11.350;2022-07-12T01:42:00;3.20;;;3.20;;
595;SDS011;19946;49.306;11.350;2022-07-12T01:45:01;2.60;;;2.60;;
595;SDS011;19946;49.306;11.350;2022-07-12T01:48:03;2.60;;;2.60;;
595;SDS011;19946;49.306;11.350;2022-07-12T01:51:04;2.10;;;2.10;;
595;SDS011;19946;49.306;11.350;2022-07-12T01:54:06;2.40;;;2.40;;
595;SDS011;19946;49.306;11.350;2022-07-12T01:57:06;3.00;;;3.00;;
595;SDS011;19946;49.306;11.350;2022-07-12T02:00:07;3.10;;;3.10;;
595;SDS011;19946;49.306;11.350;2022-07-12T02:06:24;2.70;;;2.70;;
595;SDS011;19946;49.306;11.350;2022-07-12T02:09:25;3.00;;;3.00;;
595;SDS011;19946;49.306;11.350;2022-07-12T02:12:26;2.80;;;2.80;;
595;SDS011;19946;49.306;11.350;2022-07-12T02:15:27;3.20;;;3.20;;
595;SDS011;19946;49.306;11.350;2022-07-12T02:18:27;3.20;;;3.20;;
595;SDS011;19946;49.306;11.350;2022-07-12T02:21:27;2.87;;;2.87;;
595;SDS011;19946;49.306;11.350;2022-07-12T02:24:28;3.33;;;3.33;;
595;SDS011;19946;49.306;11.350;2022-07-12T02:27:28;3.40;;;3.40;;
595;SDS011;19946;49.306;11.350;2022-07-12T02:30:29;4.00;;;4.00;;
595;SDS011;19946;49.306;11.350;2022-07-12T02:33:29;4.40;;;4.40;;
595;SDS011;19946;49.306;11.350;2022-07-12T02:36:29;4.40;;;4.40;;
595;SDS011;19946;49.306;11.350;2022-07-12T02:39:30;4.40;;;4.40;;
595;SDS011;19946;49.306;11.350;2022-07-12T02:42:30;4.57;;;4.57;;
595;SDS011;19946;49.306;11.350;2022-07-12T02:45:31;4.30;;;4.30;;
595;SDS011;19946;49.306;11.350;2022-07-12T02:48:32;4.13;;;4.13;;
595;SDS011;19946;49.306;11.350;2022-07-12T02:51:33;3.90;;;3.90;;
595;SDS011;19946;49.306;11.350;2022-07-12T02:54:33;3.40;;;3.40;;
595;SDS011;19946;49.306;11.350;2022-07-12T02:57:33;3.80;;;3.80;;
595;SDS011;19946;49.306;11.350;2022-07-12T03:00:34;3.63;;;3.63;;
595;SDS011;19946;49.306;11.350;2022-07-12T03:03:35;3.50;;;3.50;;
595;SDS011;19946;49.306;11.350;2022-07-12T03:06:35;4.00;;;4.00;;
595;SDS011;19946;49.306;11.350;2022-07-12T03:09:36;3.97;;;3.97;;
595;SDS011;19946;49.306;11.350;2022-07-12T03:12:36;5.60;;;5.60;;
595;SDS011;19946;49.306;11.350;2022-07-12T03:15:37;5.23;;;5.23;;
595;SDS011;19946;49.306;11.350;2022-07-12T03:18:39;5.00;;;5.00;;
595;SDS011;19946;49.306;11.350;2022-07-12T03:21:39;4.83;;;4.83;;
595;SDS011;19946;49.306;11.350;2022-07-12T03:24:40;3.70;;;3.70;;
595;SDS011;19946;49.306;11.350;2022-07-12T03:27:40;4.63;;;4.63;;
595;SDS011;19946;49.306;11.350;2022-07-12T03:30:41;5.50;;;5.50;;
595;SDS011;19946;49.306;11.350;2022-07-12T03:33:41;4.70;;;4.70;;
595;SDS011;19946;49.306;11.350;2022-07-12T03:36:42;4.80;;;4.80;;
595;SDS011;19946;49.306;11.350;2022-07-12T03:39:42;4.60;;;4.60;;
595;SDS011;19946;49.306;11.350;2022-07-12T03:42:42;4.80;;;4.80;;
595;SDS011;19946;49.306;11.350;2022-07-12T03:45:43;5.10;;;5.10;;
595;SDS011;19946;49.306;11.350;2022-07-12T03:48:45;4.60;;;4.60;;
595;SDS011;19946;49.306;11.350;2022-07-12T03:51:45;4.40;;;4.40;;
595;SDS011;19946;49.306;11.350;2022-07-12T03:54:46;4.20;;;4.20;;
595;SDS011;19946;49.306;11.350;2022-07-12T03:57:48;3.80;;;3.80;;
595;SDS011;19946;49.306;11.350;2022-07-12T04:00:48;4.00;;;4.00;;
595;SDS011;19946;49.306;11.350;2022-07-12T04:03:49;4.10;;;4.10;;
595;SDS011;19946;49.306;11.350;2022-07-12T04:06:49;3.70;;;3.70;;
595;SDS011;19946;49.306;11.350;2022-07-12T04:09:49;3.90;;;3.90;;
595;SDS011;19946;49.306;11.350;2022-07-12T04:12:50;4.70;;;4.70;;
595;SDS011;19946;49.306;11.350;2022-07-12T04:15:50;4.97;;;4.97;;
595;SDS011;19946;49.306;11.350;2022-07-12T04:18:50;5.60;;;5.60;;
595;SDS011;19946;49.306;11.350;2022-07-12T04:21:51;7.53;;;7.43;;
595;SDS011;19946;49.306;11.350;2022-07-12T04:24:51;8.40;;;8.30;;
595;SDS011;19946;49.306;11.350;2022-07-12T04:27:51;6.50;;;6.40;;
595;SDS011;19946;49.306;11.350;2022-07-12T04:30:55;6.20;;;6.10;;
595;SDS011;19946;49.306;11.350;2022-07-12T04:33:55;6.37;;;6.27;;
595;SDS011;19946;49.306;11.350;2022-07-12T04:36:56;6.90;;;6.80;;
595;SDS011;19946;49.306;11.350;2022-07-12T04:39:56;7.70;;;7.60;;
595;SDS011;19946;49.306;11.350;2022-07-12T04:42:56;8.67;;;8.57;;
595;SDS011;19946;49.306;11.350;2022-07-12T04:46:04;10.20;;;10.00;;
595;SDS011;19946;49.306;11.350;2022-07-12T04:49:06;9.70;;;9.50;;
595;SDS011;19946;49.306;11.350;2022-07-12T04:52:06;9.90;;;9.70;;
595;SDS011;19946;49.306;11.350;2022-07-12T04:58:29;11.07;;;10.87;;
595;SDS011;19946;49.306;11.350;2022-07-12T05:01:30;12.60;;;12.30;;
595;SDS011;19946;49.306;11.350;2022-07-12T05:04:33;12.40;;;12.10;;
595;SDS011;19946;49.306;11.350;2022-07-12T05:07:35;12.17;;;11.87;;
595;SDS011;19946;49.306;11.350;2022-07-12T05:10:35;13.10;;;12.80;;
595;SDS011;19946;49.306;11.350;2022-07-12T05:13:36;12.40;;;12.10;;
595;SDS011;19946;49.306;11.350;2022-07-12T05:16:36;12.70;;;12.40;;
595;SDS011;19946;49.306;11.350;2022-07-12T05:19:37;12.40;;;12.10;;
595;SDS011;19946;49.306;11.350;2022-07-12T05:22:38;13.30;;;13.00;;
595;SDS011;19946;49.306;11.350;2022-07-12T05:25:38;12.67;;;12.37;;
595;SDS011;19946;49.306;11.350;2022-07-12T05:28:38;16.23;;;15.80;;
595;SDS011;19946;49.306;11.350;2022-07-12T05:31:39;13.90;;;13.50;;
595;SDS011;19946;49.306;11.350;2022-07-12T05:34:39;15.10;;;14.70;;
595;SDS011;19946;49.306;11.350;2022-07-12T05:37:39;15.60;;;15.10;;
595;SDS011;19946;49.306;11.350;2022-07-12T05:40:40;16.27;;;15.77;;
595;SDS011;19946;49.306;11.350;2022-07-12T05:43:40;16.67;;;16.17;;
595;SDS011;19946;49.306;11.350;2022-07-12T05:46:40;16.10;;;15.60;;
595;SDS011;19946;49.306;11.350;2022-07-12T05:49:41;15.90;;;15.40;;
595;SDS011;19946;49.306;11.350;2022-07-12T05:52:41;15.90;;;15.40;;
595;SDS011;19946;49.306;11.350;2022-07-12T05:56:00;17.03;;;16.37;;
595;SDS011;19946;49.306;11.350;2022-07-12T05:59:00;16.80;;;16.30;;
595;SDS011;19946;49.306;11.350;2022-07-12T06:02:00;16.70;;;16.20;;
595;SDS011;19946;49.306;11.350;2022-07-12T06:05:01;16.87;;;16.37;;
595;SDS011;19946;49.306;11.350;2022-07-12T06:08:01;16.30;;;15.80;;
595;SDS011;19946;49.306;11.350;2022-07-12T06:11:02;16.80;;;16.20;;
595;SDS011;19946;49.306;11.350;2022-07-12T06:14:02;16.40;;;15.87;;
595;SDS011;19946;49.306;11.350;2022-07-12T06:17:02;16.00;;;15.50;;
595;SDS011;19946;49.306;11.350;2022-07-12T06:20:03;16.43;;;15.93;;
595;SDS011;19946;49.306;11.350;2022-07-12T06:23:04;16.20;;;15.70;;
595;SDS011;19946;49.306;11.350;2022-07-12T06:26:04;16.30;;;15.80;;
595;SDS011;19946;49.306;11.350;2022-07-12T06:29:04;16.20;;;15.70;;
595;SDS011;19946;49.306;11.350;2022-07-12T06:32:05;16.40;;;15.90;;
595;SDS011;19946;49.306;11.350;2022-07-12T06:35:05;15.60;;;15.10;;
595;SDS011;19946;49.306;11.350;2022-07-12T06:38:06;16.10;;;15.60;;
595;SDS011;19946;49.306;11.350;2022-07-12T06:41:06;16.20;;;15.70;;
595;SDS011;19946;49.306;11.350;2022-07-12T06:44:07;16.10;;;15.60;;
595;SDS011;19946;49.306;11.350;2022-07-12T06:47:07;16.10;;;15.60;;
595;SDS011;19946;49.306;11.350;2022-07-12T06:50:08;15.80;;;15.30;;
595;SDS011;19946;49.306;11.350;2022-07-12T06:53:10;16.00;;;15.50;;
595;SDS011;19946;49.306;11.350;2022-07-12T06:56:11;15.47;;;15.07;;
595;SDS011;19946;49.306;11.350;2022-07-12T06:59:11;15.80;;;15.30;;
595;SDS011;19946;49.306;11.350;2022-07-12T07:02:12;15.10;;;14.70;;
595;SDS011;19946;49.306;11.350;2022-07-12T07:05:12;15.80;;;15.30;;
595;SDS011;19946;49.306;11.350;2022-07-12T07:08:15;15.20;;;14.80;;
595;SDS011;19946;49.306;11.350;2022-07-12T07:11:15;15.90;;;15.40;;
595;SDS011;19946;49.306;11.350;2022-07-12T07:14:16;15.60;;;15.20;;
595;SDS011;19946;49.306;11.350;2022-07-12T07:17:16;15.40;;;15.00;;
595;SDS011;19946;49.306;11.350;2022-07-12T07:20:17;15.50;;;15.10;;
595;SDS011;19946;49.306;11.350;2022-07-12T07:23:18;15.40;;;15.00;;
595;SDS011;19946;49.306;11.350;2022-07-12T07:26:18;15.60;;;15.20;;
595;SDS011;19946;49.306;11.350;2022-07-12T07:29:19;15.47;;;15.07;;
595;SDS011;19946;49.306;11.350;2022-07-12T07:32:38;15.80;;;15.40;;
595;SDS011;19946;49.306;11.350;2022-07-12T07:35:38;15.60;;;15.20;;
595;SDS011;19946;49.306;11.350;2022-07-12T07:38:39;15.00;;;14.60;;
595;SDS011;19946;49.306;11.350;2022-07-12T07:41:40;15.20;;;14.80;;
595;SDS011;19946;49.306;11.350;2022-07-12T07:44:41;15.70;;;15.30;;
595;SDS011;19946;49.306;11.350;2022-07-12T07:47:44;15.40;;;15.00;;
595;SDS011;19946;49.306;11.350;2022-07-12T07:50:46;15.50;;;15.10;;
595;SDS011;19946;49.306;11.350;2022-07-12T07:53:46;14.60;;;14.20;;
595;SDS011;19946;49.306;11.350;2022-07-12T07:56:47;15.40;;;15.00;;
595;SDS011;19946;49.306;11.350;2022-07-12T07:59:47;15.20;;;14.80;;
595;SDS011;19946;49.306;11.350;2022-07-12T08:02:47;15.60;;;15.20;;
595;SDS011;19946;49.306;11.350;2022-07-12T08:05:48;15.87;;;15.47;;
595;SDS011;19946;49.306;11.350;2022-07-12T08:08:50;19.00;;;18.40;;
595;SDS011;19946;49.306;11.350;2022-07-12T08:11:51;16.10;;;15.63;;
595;SDS011;19946;49.306;11.350;2022-07-12T08:14:51;16.50;;;16.00;;
595;SDS011;19946;49.306;11.350;2022-07-12T08:17:52;16.20;;;15.80;;
595;SDS011;19946;49.306;11.350;2022-07-12T08:20:53;16.80;;;16.30;;
595;SDS011;19946;49.306;11.350;2022-07-12T08:23:54;18.67;;;18.07;;
595;SDS011;19946;49.306;11.350;2022-07-12T08:26:54;16.50;;;16.00;;
595;SDS011;19946;49.306;11.350;2022-07-12T08:29:55;16.97;;;16.47;;
595;SDS011;19946;49.306;11.350;2022-07-12T08:32:56;17.00;;;16.50;;
595;SDS011;19946;49.306;11.350;2022-07-12T08:35:57;18.43;;;17.93;;
595;SDS011;19946;49.306;11.350;2022-07-12T08:38:58;17.30;;;16.80;;
595;SDS011;19946;49.306;11.350;2022-07-12T08:41:58;17.20;;;16.70;;
595;SDS011;19946;49.306;11.350;2022-07-12T08:44:58;17.30;;;16.80;;
595;SDS011;19946;49.306;11.350;2022-07-12T08:47:59;17.50;;;17.00;;
595;SDS011;19946;49.306;11.350;2022-07-12T08:51:03;18.67;;;17.97;;
595;SDS011;19946;49.306;11.350;2022-07-12T08:54:09;18.30;;;17.67;;
595;SDS011;19946;49.306;11.350;2022-07-12T08:57:10;17.83;;;17.30;;
595;SDS011;19946;49.306;11.350;2022-07-12T09:00:11;17.60;;;17.10;;
595;SDS011;19946;49.306;11.350;2022-07-12T09:03:12;17.10;;;16.60;;
595;SDS011;19946;49.306;11.350;2022-07-12T09:06:17;15.97;;;15.57;;
595;SDS011;19946;49.306;11.350;2022-07-12T09:12:32;14.80;;;14.40;;
595;SDS011;19946;49.306;11.350;2022-07-12T09:15:34;15.43;;;15.03;;
595;SDS011;19946;49.306;11.350;2022-07-12T09:18:34;15.90;;;15.50;;
595;SDS011;19946;49.306;11.350;2022-07-12T09:21:34;15.80;;;15.40;;
595;SDS011;19946;49.306;11.350;2022-07-12T09:24:35;15.50;;;15.10;;
595;SDS011;19946;49.306;11.350;2022-07-12T09:27:36;15.30;;;14.90;;
595;SDS011;19946;49.306;11.350;2022-07-12T09:30:46;14.70;;;14.30;;
595;SDS011;19946;49.306;11.350;2022-07-12T09:34:09;14.30;;;13.90;;
595;SDS011;19946;49.306;11.350;2022-07-12T09:37:28;14.50;;;14.10;;
595;SDS011;19946;49.306;11.350;2022-07-12T09:40:39;14.50;;;14.10;;
595;SDS011;19946;49.306;11.350;2022-07-12T09:43:40;14.90;;;14.50;;
595;SDS011;19946;49.306;11.350;2022-07-12T09:46:41;14.90;;;14.50;;
595;SDS011;19946;49.306;11.350;2022-07-12T09:49:42;15.20;;;14.80;;
595;SDS011;19946;49.306;11.350;2022-07-12T09:52:44;15.00;;;14.60;;
595;SDS011;19946;49.306;11.350;2022-07-12T09:55:49;14.70;;;14.30;;
595;SDS011;19946;49.306;11.350;2022-07-12T09:58:54;14.90;;;14.50;;
595;SDS011;19946;49.306;11.350;2022-07-12T10:01:57;14.90;;;14.50;;
595;SDS011;19946;49.306;11.350;2022-07-12T10:05:01;14.53;;;14.13;;
595;SDS011;19946;49.306;11.350;2022-07-12T10:08:05;14.80;;;14.40;;
595;SDS011;19946;49.306;11.350;2022-07-12T10:11:05;14.43;;;14.03;;
595;SDS011;19946;49.306;11.350;2022-07-12T10:14:09;13.50;;;13.20;;
595;SDS011;19946;49.306;11.350;2022-07-12T10:17:11;13.60;;;13.30;;
595;SDS011;19946;49.306;11.350;2022-07-12T10:20:14;14.03;;;13.73;;
595;SDS011;19946;49.306;11.350;2022-07-12T10:26:24;13.90;;;13.60;;
595;SDS011;19946;49.306;11.350;2022-07-12T10:29:26;14.17;;;13.77;;
595;SDS011;19946;49.306;11.350;2022-07-12T10:32:34;14.47;;;14.07;;
595;SDS011;19946;49.306;11.350;2022-07-12T10:35:35;14.50;;;14.10;;
595;SDS011;19946;49.306;11.350;2022-07-12T10:38:36;13.30;;;13.00;;
595;SDS011;19946;49.306;11.350;2022-07-12T10:41:36;13.30;;;13.00;;
595;SDS011;19946;49.306;11.350;2022-07-12T10:44:37;13.57;;;13.27;;
595;SDS011;19946;49.306;11.350;2022-07-12T10:47:55;14.00;;;13.60;;
595;SDS011;19946;49.306;11.350;2022-07-12T10:50:56;13.20;;;12.90;;
595;SDS011;19946;49.306;11.350;2022-07-12T10:54:18;13.60;;;13.20;;
595;SDS011;19946;49.306;11.350;2022-07-12T11:00:40;13.10;;;12.80;;
595;SDS011;19946;49.306;11.350;2022-07-12T11:03:45;12.50;;;12.20;;
595;SDS011;19946;49.306;11.350;2022-07-12T11:06:47;11.80;;;11.60;;
595;SDS011;19946;49.306;11.350;2022-07-12T11:09:52;12.00;;;11.80;;
595;SDS011;19946;49.306;11.350;2022-07-12T11:12:53;11.90;;;11.70;;
595;SDS011;19946;49.306;11.350;2022-07-12T11:15:57;11.70;;;11.50;;
595;SDS011;19946;49.306;11.350;2022-07-12T11:19:00;11.80;;;11.50;;
595;SDS011;19946;49.306;11.350;2022-07-12T11:22:01;12.00;;;11.70;;
595;SDS011;19946;49.306;11.350;2022-07-12T11:25:02;12.03;;;11.77;;
595;SDS011;19946;49.306;11.350;2022-07-12T11:28:04;11.87;;;11.67;;
595;SDS011;19946;49.306;11.350;2022-07-12T11:31:14;11.97;;;11.70;;
595;SDS011;19946;49.306;11.350;2022-07-12T11:34:20;12.10;;;11.80;;
595;SDS011;19946;49.306;11.350;2022-07-12T11:37:24;11.80;;;11.50;;
595;SDS011;19946;49.306;11.350;2022-07-12T11:40:27;11.67;;;11.27;;
595;SDS011;19946;49.306;11.350;2022-07-12T11:43:29;12.23;;;11.73;;
595;SDS011;19946;49.306;11.350;2022-07-12T11:46:30;13.37;;;12.43;;
595;SDS011;19946;49.306;11.350;2022-07-12T11:49:31;12.20;;;11.83;;
595;SDS011;19946;49.306;11.350;2022-07-12T11:52:34;11.10;;;10.87;;
595;SDS011;19946;49.306;11.350;2022-07-12T11:55:42;11.07;;;10.87;;
595;SDS011;19946;49.306;11.350;2022-07-12T11:58:54;11.10;;;10.90;;
595;SDS011;19946;49.306;11.350;2022-07-12T12:02:02;10.90;;;10.70;;
595;SDS011;19946;49.306;11.350;2022-07-12T12:05:05;10.60;;;10.40;;
595;SDS011;19946;49.306;11.350;2022-07-12T12:08:07;10.10;;;9.90;;
595;SDS011;19946;49.306;11.350;2022-07-12T12:11:08;10.30;;;10.10;;
595;SDS011;19946;49.306;11.350;2022-07-12T12:14:09;10.10;;;9.90;;
595;SDS011;19946;49.306;11.350;2022-07-12T12:17:12;10.03;;;9.83;;
595;SDS011;19946;49.306;11.350;2022-07-12T12:20:14;10.70;;;10.33;;
595;SDS011;19946;49.306;11.350;2022-07-12T12:23:17;10.17;;;9.87;;
595;SDS011;19946;49.306;11.350;2022-07-12T12:26:19;9.60;;;9.40;;
595;SDS011;19946;49.306;11.350;2022-07-12T12:29:38;9.63;;;9.43;;
595;SDS011;19946;49.306;11.350;2022-07-12T12:32:44;9.90;;;9.70;;
595;SDS011;19946;49.306;11.350;2022-07-12T12:35:44;9.77;;;9.57;;
595;SDS011;19946;49.306;11.350;2022-07-12T12:38:45;9.70;;;9.50;;
595;SDS011;19946;49.306;11.350;2022-07-12T12:41:46;9.00;;;8.90;;
595;SDS011;19946;49.306;11.350;2022-07-12T12:44:47;9.53;;;9.23;;
595;SDS011;19946;49.306;11.350;2022-07-12T12:47:57;9.30;;;9.10;;
595;SDS011;19946;49.306;11.350;2022-07-12T12:51:05;9.80;;;9.60;;
595;SDS011;19946;49.306;11.350;2022-07-12T12:54:07;9.30;;;9.10;;
595;SDS011;19946;49.306;11.350;2022-07-12T12:57:09;9.50;;;9.30;;
595;SDS011;19946;49.306;11.350;2022-07-12T13:00:09;8.87;;;8.77;;
595;SDS011;19946;49.306;11.350;2022-07-12T13:03:11;8.40;;;8.30;;
595;SDS011;19946;49.306;11.350;2022-07-12T13:06:13;8.00;;;7.90;;
595;SDS011;19946;49.306;11.350;2022-07-12T13:09:13;8.50;;;8.40;;
595;SDS011;19946;49.306;11.350;2022-07-12T13:12:14;8.50;;;8.40;;
595;SDS011;19946;49.306;11.350;2022-07-12T13:15:14;8.30;;;8.20;;
595;SDS011;19946;49.306;11.350;2022-07-12T13:18:15;8.80;;;8.70;;
595;SDS011;19946;49.306;11.350;2022-07-12T13:21:15;8.90;;;8.80;;
595;SDS011;19946;49.306;11.350;2022-07-12T13:24:17;8.40;;;8.30;;
595;SDS011;19946;49.306;11.350;2022-07-12T13:27:17;9.10;;;8.80;;
595;SDS011;19946;49.306;11.350;2022-07-12T13:30:18;8.23;;;8.13;;
595;SDS011;19946;49.306;11.350;2022-07-12T13:33:19;8.60;;;8.50;;
595;SDS011;19946;49.306;11.350;2022-07-12T13:36:20;9.00;;;8.70;;
595;SDS011;19946;49.306;11.350;2022-07-12T13:39:21;8.57;;;8.37;;
595;SDS011;19946;49.306;11.350;2022-07-12T13:42:41;8.60;;;8.40;;
595;SDS011;19946;49.306;11.350;2022-07-12T13:45:51;9.37;;;8.97;;
595;SDS011;19946;49.306;11.350;2022-07-12T13:48:52;8.53;;;8.40;;
595;SDS011;19946;49.306;11.350;2022-07-12T13:51:52;9.47;;;9.27;;
595;SDS011;19946;49.306;11.350;2022-07-12T13:54:53;8.20;;;8.10;;
595;SDS011;19946;49.306;11.350;2022-07-12T13:57:54;8.37;;;8.20;;
595;SDS011;19946;49.306;11.350;2022-07-12T14:00:55;8.70;;;8.50;;
595;SDS011;19946;49.306;11.350;2022-07-12T14:03:56;8.30;;;8.10;;
595;SDS011;19946;49.306;11.350;2022-07-12T14:06:59;8.00;;;7.90;;
595;SDS011;19946;49.306;11.350;2022-07-12T14:10:01;7.50;;;7.40;;
595;SDS011;19946;49.306;11.350;2022-07-12T14:13:02;7.50;;;7.40;;
595;SDS011;19946;49.306;11.350;2022-07-12T14:16:06;7.47;;;7.37;;
595;SDS011;19946;49.306;11.350;2022-07-12T14:19:07;8.03;;;7.77;;
595;SDS011;19946;49.306;11.350;2022-07-12T14:22:07;7.83;;;7.63;;
595;SDS011;19946;49.306;11.350;2022-07-12T14:25:08;9.13;;;8.93;;
595;SDS011;19946;49.306;11.350;2022-07-12T14:28:08;8.23;;;8.03;;
595;SDS011;19946;49.306;11.350;2022-07-12T14:31:09;7.77;;;7.67;;
595;SDS011;19946;49.306;11.350;2022-07-12T14:34:09;7.77;;;7.67;;
595;SDS011;19946;49.306;11.350;2022-07-12T14:37:10;8.00;;;7.80;;
595;SDS011;19946;49.306;11.350;2022-07-12T14:40:10;7.10;;;7.00;;
595;SDS011;19946;49.306;11.350;2022-07-12T14:43:17;7.50;;;7.40;;
595;SDS011;19946;49.306;11.350;2022-07-12T14:46:17;8.23;;;8.10;;
595;SDS011;19946;49.306;11.350;2022-07-12T14:49:18;7.87;;;7.67;;
595;SDS011;19946;49.306;11.350;2022-07-12T14:52:21;6.90;;;6.80;;
595;SDS011;19946;49.306;11.350;2022-07-12T14:55:22;7.37;;;7.27;;
595;SDS011;19946;49.306;11.350;2022-07-12T14:58:22;7.53;;;7.43;;
595;SDS011;19946;49.306;11.350;2022-07-12T15:01:25;6.93;;;6.83;;
595;SDS011;19946;49.306;11.350;2022-07-12T15:04:26;7.20;;;7.00;;
595;SDS011;19946;49.306;11.350;2022-07-12T15:07:26;6.60;;;6.50;;
595;SDS011;19946;49.306;11.350;2022-07-12T15:10:26;6.90;;;6.80;;
595;SDS011;19946;49.306;11.350;2022-07-12T15:13:30;7.20;;;7.10;;
595;SDS011;19946;49.306;11.350;2022-07-12T15:16:30;7.10;;;6.90;;
595;SDS011;19946;49.306;11.350;2022-07-12T15:19:31;7.00;;;6.90;;
595;SDS011;19946;49.306;11.350;2022-07-12T15:22:31;7.33;;;7.23;;
595;SDS011;19946;49.306;11.350;2022-07-12T15:25:32;7.67;;;7.47;;
595;SDS011;19946;49.306;11.350;2022-07-12T15:28:32;7.57;;;7.30;;
595;SDS011;19946;49.306;11.350;2022-07-12T15:31:35;7.77;;;7.47;;
595;SDS011;19946;49.306;11.350;2022-07-12T15:34:35;7.30;;;7.20;;
595;SDS011;19946;49.306;11.350;2022-07-12T15:37:36;7.53;;;7.40;;
595;SDS011;19946;49.306;11.350;2022-07-12T15:40:37;6.90;;;6.80;;
595;SDS011;19946;49.306;11.350;2022-07-12T15:43:38;7.17;;;7.03;;
595;SDS011;19946;49.306;11.350;2022-07-12T15:46:42;7.17;;;7.07;;
595;SDS011;19946;49.306;11.350;2022-07-12T15:49:44;6.90;;;6.80;;
595;SDS011;19946;49.306;11.350;2022-07-12T15:52:44;6.90;;;6.80;;
595;SDS011;19946;49.306;11.350;2022-07-12T15:56:04;7.57;;;7.17;;
595;SDS011;19946;49.306;11.350;2022-07-12T15:59:08;7.03;;;6.83;;
595;SDS011;19946;49.306;11.350;2022-07-12T16:02:08;6.60;;;6.50;;
595;SDS011;19946;49.306;11.350;2022-07-12T16:05:09;6.90;;;6.77;;
595;SDS011;19946;49.306;11.350;2022-07-12T16:08:10;6.37;;;6.27;;
595;SDS011;19946;49.306;11.350;2022-07-12T16:11:11;6.40;;;6.30;;
595;SDS011;19946;49.306;11.350;2022-07-12T16:14:11;6.80;;;6.70;;
595;SDS011;19946;49.306;11.350;2022-07-12T16:17:12;6.60;;;6.50;;
595;SDS011;19946;49.306;11.350;2022-07-12T16:20:14;6.63;;;6.53;;
595;SDS011;19946;49.306;11.350;2022-07-12T16:23:14;6.83;;;6.73;;
595;SDS011;19946;49.306;11.350;2022-07-12T16:26:14;5.90;;;5.80;;
595;SDS011;19946;49.306;11.350;2022-07-12T16:29:15;6.07;;;5.97;;
595;SDS011;19946;49.306;11.350;2022-07-12T16:32:15;6.27;;;6.10;;
595;SDS011;19946;49.306;11.350;2022-07-12T16:35:16;5.60;;;5.50;;
595;SDS011;19946;49.306;11.350;2022-07-12T16:38:16;5.73;;;5.63;;
595;SDS011;19946;49.306;11.350;2022-07-12T16:41:17;6.00;;;5.90;;
595;SDS011;19946;49.306;11.350;2022-07-12T16:44:17;5.70;;;5.60;;
595;SDS011;19946;49.306;11.350;2022-07-12T16:47:18;5.70;;;5.60;;
595;SDS011;19946;49.306;11.350;2022-07-12T16:50:19;5.73;;;5.63;;
595;SDS011;19946;49.306;11.350;2022-07-12T16:53:19;5.63;;;5.53;;
595;SDS011;19946;49.306;11.350;2022-07-12T16:56:23;5.50;;;5.40;;
595;SDS011;19946;49.306;11.350;2022-07-12T16:59:25;5.50;;;5.50;;
595;SDS011;19946;49.306;11.350;2022-07-12T17:02:25;5.70;;;5.60;;
595;SDS011;19946;49.306;11.350;2022-07-12T17:05:26;5.70;;;5.70;;
595;SDS011;19946;49.306;11.350;2022-07-12T17:08:26;5.80;;;5.70;;
595;SDS011;19946;49.306;11.350;2022-07-12T17:11:27;5.50;;;5.50;;
595;SDS011;19946;49.306;11.350;2022-07-12T17:14:28;5.40;;;5.40;;
595;SDS011;19946;49.306;11.350;2022-07-12T17:17:29;5.50;;;5.40;;
595;SDS011;19946;49.306;11.350;2022-07-12T17:20:29;5.60;;;5.60;;
595;SDS011;19946;49.306;11.350;2022-07-12T17:23:31;5.87;;;5.63;;
595;SDS011;19946;49.306;11.350;2022-07-12T17:26:32;6.40;;;6.00;;
595;SDS011;19946;49.306;11.350;2022-07-12T17:29:32;5.60;;;5.50;;
595;SDS011;19946;49.306;11.350;2022-07-12T17:32:33;5.90;;;5.80;;
595;SDS011;19946;49.306;11.350;2022-07-12T17:35:35;5.67;;;5.57;;
595;SDS011;19946;49.306;11.350;2022-07-12T17:38:37;5.73;;;5.70;;
595;SDS011;19946;49.306;11.350;2022-07-12T17:41:37;5.50;;;5.50;;
595;SDS011;19946;49.306;11.350;2022-07-12T17:44:37;5.30;;;5.30;;
595;SDS011;19946;49.306;11.350;2022-07-12T17:47:38;5.50;;;5.50;;
595;SDS011;19946;49.306;11.350;2022-07-12T17:50:38;6.00;;;5.90;;
595;SDS011;19946;49.306;11.350;2022-07-12T17:53:38;5.47;;;5.40;;
595;SDS011;19946;49.306;11.350;2022-07-12T17:56:40;5.50;;;5.50;;
595;SDS011;19946;49.306;11.350;2022-07-12T17:59:40;5.70;;;5.70;;
595;SDS011;19946;49.306;11.350;2022-07-12T18:02:40;5.27;;;5.27;;
595;SDS011;19946;49.306;11.350;2022-07-12T18:05:42;5.40;;;5.40;;
595;SDS011;19946;49.306;11.350;2022-07-12T18:08:43;5.40;;;5.40;;
595;SDS011;19946;49.306;11.350;2022-07-12T18:11:44;5.33;;;5.33;;
595;SDS011;19946;49.306;11.350;2022-07-12T18:15:03;5.60;;;5.60;;
595;SDS011;19946;49.306;11.350;2022-07-12T18:18:03;5.60;;;5.60;;
595;SDS011;19946;49.306;11.350;2022-07-12T18:21:04;5.27;;;5.27;;
595;SDS011;19946;49.306;11.350;2022-07-12T18:24:08;5.30;;;5.30;;
595;SDS011;19946;49.306;11.350;2022-07-12T18:27:09;5.57;;;5.50;;
595;SDS011;19946;49.306;11.350;2022-07-12T18:30:09;5.30;;;5.30;;
595;SDS011;19946;49.306;11.350;2022-07-12T18:33:10;5.10;;;5.10;;
595;SDS011;19946;49.306;11.350;2022-07-12T18:36:10;5.37;;;5.37;;